Time;durP1;ratioP1;P1;durP2;ratioP2;P2;SDS_P1;SDS_P2;PMS_P1;PMS_P2;Temp;Humidity;BMP_temperature;BMP_pressure;BME280_temperature;BME280_humidity;BME280_pressure;Samples;Min_cycle;Max_cycle;Signal;HPM_P1;HPM_P2
2022/01/27 00:00:42;;;;;;;21.53;10.43;;;;;;;;;;5015320;28;20190;-79
2022/01/27 00:06:00;;;;;;;22.00;10.30;;;;;;;;;;5015725;28;20202;-79
2022/01/27 00:08:36;;;;;;;23.27;10.20;;;;;;;;;;5014424;28;20595;-79
2022/01/27 00:11:09;;;;;;;20.43;10.60;;;;;;;;;;5014338;28;20181;-79
2022/01/27 00:13:43;;;;;;;29.00;13.40;;;;;;;;;;5014247;28;20179;-79
2022/01/27 00:16:18;;;;;;;22.60;11.53;;;;;;;;;;5014141;28;20201;-79
2022/01/27 00:18:46;;;;;;;23.63;10.77;;;;;;;;;;5014144;28;20644;-79
2022/01/27 00:21:13;;;;;;;20.77;10.57;;;;;;;;;;5014253;28;20669;-79
2022/01/27 00:23:41;;;;;;;23.67;12.20;;;;;;;;;;5014173;28;20232;-79
2022/01/27 00:26:07;;;;;;;23.97;11.60;;;;;;;;;;5013795;28;20205;-79
2022/01/27 00:28:33;;;;;;;26.97;11.50;;;;;;;;;;5015285;28;20182;-79
2022/01/27 00:30:59;;;;;;;27.27;12.13;;;;;;;;;;5013955;28;20273;-79
2022/01/27 00:33:25;;;;;;;24.60;11.57;;;;;;;;;;4997393;28;20220;-79
2022/01/27 00:35:51;;;;;;;23.77;12.73;;;;;;;;;;5013944;28;20309;-79
2022/01/27 00:38:17;;;;;;;25.27;12.70;;;;;;;;;;4997760;28;20678;-79
2022/01/27 00:40:44;;;;;;;24.57;11.70;;;;;;;;;;4996867;28;20185;-79
2022/01/27 00:43:10;;;;;;;24.43;12.60;;;;;;;;;;5013839;28;20186;-79
2022/01/27 00:45:36;;;;;;;23.67;12.47;;;;;;;;;;4997207;28;20206;-79
2022/01/27 00:48:04;;;;;;;23.93;11.67;;;;;;;;;;4997477;28;20735;-79
2022/01/27 00:50:32;;;;;;;29.93;13.77;;;;;;;;;;4997678;28;20186;-79
2022/01/27 00:53:00;;;;;;;24.10;11.80;;;;;;;;;;5013696;28;20175;-79
2022/01/27 00:55:29;;;;;;;23.97;11.93;;;;;;;;;;5035716;22;20703;-79
2022/01/27 01:00:33;;;;;;;24.27;11.30;;;;;;;;;;5034522;28;20173;-79
2022/01/27 01:03:08;;;;;;;29.17;12.60;;;;;;;;;;5034318;28;20177;-79
2022/01/27 01:08:26;;;;;;;25.70;12.40;;;;;;;;;;5033205;28;20689;-79
2022/01/27 01:16:07;;;;;;;19.10;9.17;;;;;;;;;;5033309;28;20663;-79
2022/01/27 01:18:49;;;;;;;23.83;12.50;;;;;;;;;;5016818;28;20182;-79
2022/01/27 01:34:30;;;;;;;26.40;13.50;;;;;;;;;;5033831;28;20179;-79
2022/01/27 01:37:05;;;;;;;22.17;11.57;;;;;;;;;;5016340;28;20217;-79
2022/01/27 01:39:33;;;;;;;25.23;12.90;;;;;;;;;;5017445;28;20264;-79
2022/01/27 01:42:00;;;;;;;23.93;11.97;;;;;;;;;;5032338;28;20182;-79
2022/01/27 01:44:26;;;;;;;22.20;11.07;;;;;;;;;;5016034;28;20209;-79
2022/01/27 01:46:53;;;;;;;24.77;12.67;;;;;;;;;;5032556;28;20184;-79
2022/01/27 01:49:22;;;;;;;29.33;14.17;;;;;;;;;;5032337;28;20189;-79
2022/01/27 01:51:48;;;;;;;26.50;13.43;;;;;;;;;;5032198;28;20192;-79
2022/01/27 01:54:15;;;;;;;24.43;13.87;;;;;;;;;;5015612;28;20308;-79
2022/01/27 01:56:41;;;;;;;26.20;13.40;;;;;;;;;;5031887;28;20213;-79
2022/01/27 01:59:07;;;;;;;24.57;13.77;;;;;;;;;;5032095;28;20182;-79
2022/01/27 02:01:34;;;;;;;24.60;13.00;;;;;;;;;;5015639;28;20174;-79
2022/01/27 02:04:05;;;;;;;27.50;13.70;;;;;;;;;;5031917;28;20181;-79
2022/01/27 02:06:36;;;;;;;24.57;13.77;;;;;;;;;;5032151;28;20201;-79
2022/01/27 02:19:52;;;;;;;20.60;10.57;;;;;;;;;;5032185;28;20204;-79
2022/01/27 02:22:19;;;;;;;22.83;11.30;;;;;;;;;;5031958;28;20269;-79
2022/01/27 02:24:45;;;;;;;22.23;11.63;;;;;;;;;;5015333;28;20212;-79
2022/01/27 02:27:11;;;;;;;21.43;11.13;;;;;;;;;;5032603;28;20182;-79
2022/01/27 02:29:38;;;;;;;22.20;10.03;;;;;;;;;;5031589;28;20666;-79
2022/01/27 02:32:04;;;;;;;24.57;11.07;;;;;;;;;;5015322;28;20178;-79
2022/01/27 02:34:30;;;;;;;24.83;11.03;;;;;;;;;;5015009;28;20186;-79
2022/01/27 02:36:56;;;;;;;28.80;13.23;;;;;;;;;;5015302;28;20223;-79
2022/01/27 02:39:22;;;;;;;23.60;12.77;;;;;;;;;;5015099;28;20573;-79
2022/01/27 02:41:51;;;;;;;25.30;14.07;;;;;;;;;;5031611;28;20189;-79
2022/01/27 02:44:36;;;;;;;24.83;13.13;;;;;;;;;;5031126;28;20272;-79
2022/01/27 02:47:02;;;;;;;26.03;12.97;;;;;;;;;;5031353;28;20734;-79
2022/01/27 02:49:28;;;;;;;23.47;12.57;;;;;;;;;;5014820;28;20714;-79
2022/01/27 02:51:54;;;;;;;22.13;12.33;;;;;;;;;;5015030;28;20185;-79
2022/01/27 02:54:20;;;;;;;29.13;14.17;;;;;;;;;;5014450;28;20185;-79
2022/01/27 02:56:47;;;;;;;23.57;12.57;;;;;;;;;;5014956;28;20651;-79
2022/01/27 02:59:14;;;;;;;29.27;13.63;;;;;;;;;;5031041;28;20265;-79
2022/01/27 03:01:40;;;;;;;23.40;12.80;;;;;;;;;;5031441;28;20180;-79
2022/01/27 03:04:06;;;;;;;31.00;13.77;;;;;;;;;;5030691;28;20174;-79
2022/01/27 03:06:32;;;;;;;28.13;14.27;;;;;;;;;;5014717;28;20201;-79
2022/01/27 03:08:58;;;;;;;27.57;13.50;;;;;;;;;;5031110;28;20196;-79
2022/01/27 03:11:44;;;;;;;25.37;13.57;;;;;;;;;;5014810;28;20185;-79
2022/01/27 03:14:11;;;;;;;25.77;13.17;;;;;;;;;;5031078;28;20564;-79
2022/01/27 03:16:37;;;;;;;23.27;11.63;;;;;;;;;;5014552;28;20216;-79
2022/01/27 03:19:03;;;;;;;26.17;12.70;;;;;;;;;;5030941;28;20184;-79
2022/01/27 03:21:29;;;;;;;23.37;12.77;;;;;;;;;;5031014;28;20211;-79
2022/01/27 03:23:55;;;;;;;26.50;13.33;;;;;;;;;;5014439;28;20178;-79
2022/01/27 03:26:22;;;;;;;27.67;13.33;;;;;;;;;;5030449;28;20209;-79
2022/01/27 03:28:48;;;;;;;23.00;12.37;;;;;;;;;;5014965;28;20216;-79
2022/01/27 03:31:15;;;;;;;23.33;11.83;;;;;;;;;;5031080;28;20275;-79
2022/01/27 03:33:42;;;;;;;24.30;13.37;;;;;;;;;;5030501;28;20232;-79
2022/01/27 03:36:08;;;;;;;27.27;13.67;;;;;;;;;;5030728;28;20210;-79
2022/01/27 03:38:34;;;;;;;28.00;14.17;;;;;;;;;;5030711;28;20234;-79
2022/01/27 03:41:05;;;;;;;31.67;14.70;;;;;;;;;;5030681;28;20188;-79
2022/01/27 03:43:31;;;;;;;26.63;13.27;;;;;;;;;;5030711;28;20184;-79
2022/01/27 03:45:57;;;;;;;27.40;13.40;;;;;;;;;;5014288;28;20206;-79
2022/01/27 03:48:23;;;;;;;27.47;13.63;;;;;;;;;;5014365;28;20210;-79
2022/01/27 03:50:49;;;;;;;25.83;12.93;;;;;;;;;;5014293;28;20188;-79
2022/01/27 03:53:15;;;;;;;29.67;13.33;;;;;;;;;;5014109;28;20189;-79
2022/01/27 03:55:41;;;;;;;26.10;12.13;;;;;;;;;;5013963;28;20231;-79
2022/01/27 03:58:07;;;;;;;24.10;12.27;;;;;;;;;;5030636;28;20183;-79
2022/01/27 04:00:34;;;;;;;25.60;12.90;;;;;;;;;;5030788;28;20182;-79
2022/01/27 04:03:06;;;;;;;28.10;13.23;;;;;;;;;;5030399;28;20723;-79
2022/01/27 04:05:37;;;;;;;27.37;13.03;;;;;;;;;;5014649;28;20204;-79
2022/01/27 04:08:04;;;;;;;25.07;13.27;;;;;;;;;;5014627;28;20184;-79
2022/01/27 04:10:30;;;;;;;21.07;11.27;;;;;;;;;;5030512;28;20180;-79
2022/01/27 04:12:56;;;;;;;25.47;12.37;;;;;;;;;;5014203;28;20179;-79
2022/01/27 04:15:22;;;;;;;26.63;13.57;;;;;;;;;;5031086;28;20223;-78
2022/01/27 04:17:48;;;;;;;28.07;13.43;;;;;;;;;;5034063;28;20216;-79
2022/01/27 04:20:15;;;;;;;25.87;13.50;;;;;;;;;;5017536;28;20546;-79
2022/01/27 04:22:41;;;;;;;26.27;12.83;;;;;;;;;;5033926;28;20218;-79
2022/01/27 04:25:07;;;;;;;23.83;11.07;;;;;;;;;;5017432;28;20569;-79
2022/01/27 04:27:38;;;;;;;25.63;12.83;;;;;;;;;;5033513;28;20184;-79
2022/01/27 04:30:07;;;;;;;24.20;11.97;;;;;;;;;;5034151;28;20183;-79
2022/01/27 04:32:41;;;;;;;24.80;12.10;;;;;;;;;;5033945;28;20234;-79
2022/01/27 04:35:10;;;;;;;22.57;11.53;;;;;;;;;;5018108;28;20203;-79
2022/01/27 04:37:41;;;;;;;20.77;9.77;;;;;;;;;;5033684;28;20691;-79
2022/01/27 04:40:16;;;;;;;22.43;11.50;;;;;;;;;;5017958;28;20675;-79
2022/01/27 04:45:09;;;;;;;25.17;12.43;;;;;;;;;;5033409;28;20251;-79
2022/01/27 04:47:41;;;;;;;26.00;12.30;;;;;;;;;;5017245;28;20198;-79
2022/01/27 04:50:07;;;;;;;26.23;12.80;;;;;;;;;;5017915;28;20186;-79
2022/01/27 04:52:38;;;;;;;22.90;11.63;;;;;;;;;;5033550;28;20174;-79
2022/01/27 04:55:08;;;;;;;24.87;11.43;;;;;;;;;;5017212;28;20220;-79
2022/01/27 04:57:37;;;;;;;19.30;9.43;;;;;;;;;;5017480;28;20335;-79
2022/01/27 05:00:04;;;;;;;24.57;12.00;;;;;;;;;;5016999;28;20739;-79
2022/01/27 05:02:55;;;;;;;26.13;12.13;;;;;;;;;;5033354;28;20173;-79
2022/01/27 05:05:22;;;;;;;29.07;13.73;;;;;;;;;;5019958;28;20705;-79
2022/01/27 05:07:55;;;;;;;24.70;12.13;;;;;;;;;;5033402;28;20181;-79
2022/01/27 05:10:25;;;;;;;23.97;11.63;;;;;;;;;;5032986;28;20182;-79
2022/01/27 05:12:54;;;;;;;24.20;11.47;;;;;;;;;;5033225;28;20267;-79
2022/01/27 05:15:21;;;;;;;27.87;12.70;;;;;;;;;;5016870;28;20720;-79
2022/01/27 05:17:47;;;;;;;23.20;11.83;;;;;;;;;;5032758;28;20208;-79
2022/01/27 05:20:13;;;;;;;24.00;11.70;;;;;;;;;;5016542;28;20280;-79
2022/01/27 05:22:39;;;;;;;26.90;12.20;;;;;;;;;;5016510;28;20208;-79
2022/01/27 05:25:05;;;;;;;24.80;11.03;;;;;;;;;;5016066;28;20261;-79
2022/01/27 05:27:31;;;;;;;22.40;10.70;;;;;;;;;;5015653;28;20185;-79
2022/01/27 05:29:57;;;;;;;25.67;11.80;;;;;;;;;;5016181;28;20192;-79
2022/01/27 05:32:23;;;;;;;23.73;11.50;;;;;;;;;;5016656;28;20181;-79
2022/01/27 05:34:49;;;;;;;22.60;10.90;;;;;;;;;;5015825;28;20211;-79
2022/01/27 05:37:15;;;;;;;27.37;12.80;;;;;;;;;;5033684;28;20197;-79
2022/01/27 05:39:41;;;;;;;23.13;10.80;;;;;;;;;;5016075;28;20243;-79
2022/01/27 05:42:07;;;;;;;26.93;12.33;;;;;;;;;;5016059;28;20272;-79
2022/01/27 05:44:33;;;;;;;25.83;11.70;;;;;;;;;;5032418;28;20275;-79
2022/01/27 05:46:59;;;;;;;25.87;12.30;;;;;;;;;;5032576;28;20675;-79
2022/01/27 05:49:25;;;;;;;26.10;12.13;;;;;;;;;;5032576;28;20214;-79
2022/01/27 05:51:51;;;;;;;26.37;12.07;;;;;;;;;;5015948;28;20187;-79
2022/01/27 05:54:17;;;;;;;25.50;11.83;;;;;;;;;;5015511;28;20194;-79
2022/01/27 05:56:43;;;;;;;23.73;10.80;;;;;;;;;;5015607;28;20236;-79
2022/01/27 05:59:09;;;;;;;26.80;12.20;;;;;;;;;;5032022;28;20674;-79
2022/01/27 06:01:35;;;;;;;17.30;9.00;;;;;;;;;;5015862;28;20177;-79
2022/01/27 06:04:01;;;;;;;25.87;11.97;;;;;;;;;;5015333;28;20184;-79
2022/01/27 06:06:27;;;;;;;23.10;10.83;;;;;;;;;;5015704;28;20268;-79
2022/01/27 06:08:53;;;;;;;25.40;12.03;;;;;;;;;;5015563;28;20597;-78
2022/01/27 06:11:19;;;;;;;28.97;12.87;;;;;;;;;;5033144;28;20196;-78
2022/01/27 06:13:48;;;;;;;28.23;12.80;;;;;;;;;;5031728;28;20275;-78
2022/01/27 06:16:14;;;;;;;28.57;12.90;;;;;;;;;;5031509;28;20209;-78
2022/01/27 06:18:41;;;;;;;27.97;12.80;;;;;;;;;;5015205;28;20185;-77
2022/01/27 06:21:08;;;;;;;29.20;13.30;;;;;;;;;;5015306;28;20183;-78
2022/01/27 06:23:34;;;;;;;26.30;11.53;;;;;;;;;;5031572;28;20179;-78
2022/01/27 06:26:01;;;;;;;30.53;12.33;;;;;;;;;;5031494;28;20204;-78
2022/01/27 06:28:27;;;;;;;26.47;12.37;;;;;;;;;;5031659;28;20643;-78
2022/01/27 06:30:53;;;;;;;26.70;11.80;;;;;;;;;;5031513;28;20263;-78
2022/01/27 06:33:19;;;;;;;24.80;12.63;;;;;;;;;;5015171;28;20214;-78
2022/01/27 06:35:45;;;;;;;21.70;9.50;;;;;;;;;;5031303;28;20207;-78
2022/01/27 06:38:11;;;;;;;25.00;11.33;;;;;;;;;;5014467;28;20552;-78
2022/01/27 06:40:37;;;;;;;24.70;10.63;;;;;;;;;;5015123;28;20247;-78
2022/01/27 06:43:03;;;;;;;28.53;12.63;;;;;;;;;;5014980;28;20181;-78
2022/01/27 06:45:29;;;;;;;30.63;13.70;;;;;;;;;;5014701;28;20210;-78
2022/01/27 06:47:55;;;;;;;24.93;12.20;;;;;;;;;;5014826;28;20196;-78
2022/01/27 06:50:21;;;;;;;30.90;12.30;;;;;;;;;;5014796;28;20181;-78
2022/01/27 06:52:47;;;;;;;29.37;13.00;;;;;;;;;;5031107;28;20191;-78
2022/01/27 06:55:17;;;;;;;24.50;10.73;;;;;;;;;;5015579;28;20220;-78
2022/01/27 06:57:44;;;;;;;27.70;12.63;;;;;;;;;;5031502;28;20326;-79
2022/01/27 07:00:11;;;;;;;27.43;12.30;;;;;;;;;;5031717;28;20291;-77
2022/01/27 07:02:37;;;;;;;30.17;13.60;;;;;;;;;;5014867;28;20216;-77
2022/01/27 07:15:28;;;;;;;32.60;12.70;;;;;;;;;;5803075;22;20221;-79
2022/01/27 07:17:54;;;;;;;26.10;12.23;;;;;;;;;;5014937;28;20223;-80
2022/01/27 07:20:21;;;;;;;27.50;11.90;;;;;;;;;;5015090;28;20184;-79
2022/01/27 07:22:47;;;;;;;30.40;12.93;;;;;;;;;;5031283;28;20264;-82
2022/01/27 07:25:13;;;;;;;28.70;12.30;;;;;;;;;;5030837;28;20215;-80
2022/01/27 07:27:39;;;;;;;28.33;12.30;;;;;;;;;;5014374;28;20680;-80
2022/01/27 07:30:05;;;;;;;29.53;13.53;;;;;;;;;;5068647;22;20276;-78
2022/01/27 07:32:31;;;;;;;34.37;13.50;;;;;;;;;;5051249;28;20183;-78
2022/01/27 07:34:57;;;;;;;29.70;12.77;;;;;;;;;;5050743;28;20597;-78
2022/01/27 07:37:23;;;;;;;28.37;13.10;;;;;;;;;;5034411;28;20700;-77
2022/01/27 07:39:49;;;;;;;28.27;13.77;;;;;;;;;;5026544;28;20232;-77
2022/01/27 07:42:15;;;;;;;30.37;13.20;;;;;;;;;;5030887;28;20234;-77
2022/01/27 07:44:41;;;;;;;29.57;13.67;;;;;;;;;;5030354;28;20184;-76
2022/01/27 07:47:07;;;;;;;29.03;12.53;;;;;;;;;;5030942;28;20180;-77
2022/01/27 07:49:33;;;;;;;32.37;13.67;;;;;;;;;;5033195;28;20196;-77
2022/01/27 07:51:59;;;;;;;34.23;13.47;;;;;;;;;;5034768;28;20242;-77
2022/01/27 07:54:25;;;;;;;30.20;12.97;;;;;;;;;;5034329;28;20648;-78
2022/01/27 07:56:51;;;;;;;30.83;13.73;;;;;;;;;;5034345;28;20223;-77
2022/01/27 07:59:17;;;;;;;35.00;14.23;;;;;;;;;;5034272;28;20649;-78
2022/01/27 08:01:43;;;;;;;29.83;14.00;;;;;;;;;;5034431;28;20200;-78
2022/01/27 08:04:11;;;;;;;31.07;13.63;;;;;;;;;;5034393;28;20189;-76
2022/01/27 08:06:37;;;;;;;32.60;13.10;;;;;;;;;;5034778;28;20192;-76
2022/01/27 08:09:03;;;;;;;34.10;13.70;;;;;;;;;;5034345;28;20180;-76
2022/01/27 08:11:29;;;;;;;30.40;12.97;;;;;;;;;;5034179;28;20188;-77
2022/01/27 08:13:55;;;;;;;29.63;13.13;;;;;;;;;;5033922;28;20182;-77
2022/01/27 08:16:21;;;;;;;31.10;13.47;;;;;;;;;;5034097;28;20211;-77
2022/01/27 08:18:47;;;;;;;28.00;13.30;;;;;;;;;;5034041;28;20174;-77
2022/01/27 08:21:13;;;;;;;30.53;13.10;;;;;;;;;;5033810;28;20192;-78
2022/01/27 08:23:42;;;;;;;33.13;13.43;;;;;;;;;;5033859;28;20557;-78
2022/01/27 08:26:10;;;;;;;29.63;12.30;;;;;;;;;;5033836;28;20191;-78
2022/01/27 08:28:53;;;;;;;30.20;12.17;;;;;;;;;;5035076;28;20174;-77
2022/01/27 08:31:19;;;;;;;28.03;13.27;;;;;;;;;;5034898;28;20872;-77
2022/01/27 08:33:45;;;;;;;28.23;12.27;;;;;;;;;;5034863;28;20240;-77
2022/01/27 08:36:11;;;;;;;27.80;12.37;;;;;;;;;;5031772;28;20217;-77
2022/01/27 08:38:43;;;;;;;27.87;11.70;;;;;;;;;;5033652;28;20712;-77
2022/01/27 08:41:09;;;;;;;26.50;12.73;;;;;;;;;;5033587;28;20624;-77
2022/01/27 08:43:35;;;;;;;28.87;12.23;;;;;;;;;;5016950;28;20226;-77
2022/01/27 08:46:01;;;;;;;28.63;12.93;;;;;;;;;;5017215;28;20178;-78
2022/01/27 08:48:28;;;;;;;27.67;12.53;;;;;;;;;;5033386;28;20269;-77
2022/01/27 08:51:01;;;;;;;28.90;13.90;;;;;;;;;;5033361;28;20197;-77
2022/01/27 08:53:29;;;;;;;29.83;13.13;;;;;;;;;;5033411;28;20177;-78
2022/01/27 08:55:55;;;;;;;30.87;14.13;;;;;;;;;;5033328;28;20235;-77
2022/01/27 08:58:23;;;;;;;30.13;14.17;;;;;;;;;;5033217;28;20178;-78
2022/01/27 09:00:49;;;;;;;34.40;14.37;;;;;;;;;;5032469;28;20245;-77
2022/01/27 09:03:15;;;;;;;29.33;12.93;;;;;;;;;;5033040;28;20176;-76
2022/01/27 09:05:41;;;;;;;32.57;13.03;;;;;;;;;;5034417;28;20544;-77
2022/01/27 09:08:07;;;;;;;30.73;13.60;;;;;;;;;;5033019;28;20662;-77
2022/01/27 09:10:34;;;;;;;32.27;13.63;;;;;;;;;;5016652;28;20210;-77
2022/01/27 09:13:01;;;;;;;30.23;14.23;;;;;;;;;;5016867;28;20219;-77
2022/01/27 09:15:28;;;;;;;33.20;14.63;;;;;;;;;;5016443;28;20555;-77
2022/01/27 09:17:56;;;;;;;32.10;13.03;;;;;;;;;;5028077;28;20722;-76
2022/01/27 09:20:22;;;;;;;32.27;13.07;;;;;;;;;;5047423;28;20192;-78
2022/01/27 09:22:51;;;;;;;30.57;13.80;;;;;;;;;;5033060;28;20233;-77
2022/01/27 09:25:21;;;;;;;32.97;14.00;;;;;;;;;;5034059;28;20176;-77
2022/01/27 09:27:48;;;;;;;30.03;12.73;;;;;;;;;;5015110;28;20280;-77
2022/01/27 09:30:17;;;;;;;30.63;12.53;;;;;;;;;;5033066;28;20318;-78
2022/01/27 09:32:43;;;;;;;32.03;13.70;;;;;;;;;;5032675;28;20605;-78
2022/01/27 09:35:09;;;;;;;29.37;12.93;;;;;;;;;;5032517;28;20176;-78
2022/01/27 09:37:35;;;;;;;29.27;12.57;;;;;;;;;;5032213;28;20209;-78
2022/01/27 09:40:01;;;;;;;27.63;12.70;;;;;;;;;;5033642;28;20364;-77
2022/01/27 09:42:30;;;;;;;28.70;11.83;;;;;;;;;;5032748;28;20214;-78
2022/01/27 09:44:59;;;;;;;26.13;11.17;;;;;;;;;;5033488;28;20195;-77
2022/01/27 09:47:29;;;;;;;27.83;12.63;;;;;;;;;;5032362;28;20192;-77
2022/01/27 09:50:06;;;;;;;29.30;12.47;;;;;;;;;;5032880;28;20207;-78
2022/01/27 09:52:32;;;;;;;29.03;12.53;;;;;;;;;;5032290;28;20181;-77
2022/01/27 09:54:58;;;;;;;30.70;12.63;;;;;;;;;;5033246;28;20188;-77
2022/01/27 09:57:24;;;;;;;31.43;12.33;;;;;;;;;;5048431;28;20227;-77
2022/01/27 09:59:50;;;;;;;32.33;12.63;;;;;;;;;;5031855;28;20204;-77
2022/01/27 10:02:18;;;;;;;25.87;11.93;;;;;;;;;;5032265;28;20178;-78
2022/01/27 10:04:45;;;;;;;28.00;12.57;;;;;;;;;;5033070;28;20173;-77
2022/01/27 10:07:14;;;;;;;27.30;12.30;;;;;;;;;;5030916;28;20184;-78
2022/01/27 10:09:40;;;;;;;27.63;12.70;;;;;;;;;;5011943;28;20208;-78
2022/01/27 10:12:06;;;;;;;25.57;12.97;;;;;;;;;;5031616;28;20192;-77
2022/01/27 10:14:36;;;;;;;24.50;11.40;;;;;;;;;;5008143;28;20190;-77
2022/01/27 10:17:04;;;;;;;29.53;12.33;;;;;;;;;;5012294;28;20590;-77
2022/01/27 10:19:30;;;;;;;24.47;12.00;;;;;;;;;;5012071;28;20213;-78
2022/01/27 10:22:04;;;;;;;26.83;12.83;;;;;;;;;;5028472;28;20210;-77
2022/01/27 10:24:32;;;;;;;24.80;11.70;;;;;;;;;;5011951;28;20314;-78
2022/01/27 10:27:28;;;;;;;29.00;14.23;;;;;;;;;;5028227;28;20185;-77
2022/01/27 10:32:38;;;;;;;25.13;11.90;;;;;;;;;;5013155;28;20562;-78
2022/01/27 10:35:04;;;;;;;26.50;12.07;;;;;;;;;;5027893;28;20318;-77
2022/01/27 10:37:51;;;;;;;30.03;12.93;;;;;;;;;;5028065;28;20209;-77
2022/01/27 10:40:21;;;;;;;30.07;12.87;;;;;;;;;;5011409;28;20255;-77
2022/01/27 10:42:57;;;;;;;28.07;11.97;;;;;;;;;;5011792;28;20178;-77
2022/01/27 10:45:23;;;;;;;27.33;12.23;;;;;;;;;;5027842;28;20181;-77
2022/01/27 10:47:49;;;;;;;27.33;12.17;;;;;;;;;;5011599;28;20191;-77
2022/01/27 10:50:16;;;;;;;29.30;12.87;;;;;;;;;;5011698;28;20606;-78
2022/01/27 10:52:51;;;;;;;29.27;12.53;;;;;;;;;;5028213;28;20244;-78
2022/01/27 10:55:18;;;;;;;26.30;11.97;;;;;;;;;;5027782;28;20212;-78
2022/01/27 10:57:49;;;;;;;27.67;12.87;;;;;;;;;;5027892;28;20245;-77
2022/01/27 11:00:20;;;;;;;27.50;12.23;;;;;;;;;;5012046;28;20212;-77
2022/01/27 11:02:56;;;;;;;27.17;12.33;;;;;;;;;;5028132;28;20207;-77
2022/01/27 11:05:23;;;;;;;28.97;12.03;;;;;;;;;;5027879;28;20184;-77
2022/01/27 11:07:49;;;;;;;25.90;11.03;;;;;;;;;;5027755;28;20231;-77
2022/01/27 11:10:16;;;;;;;28.27;12.27;;;;;;;;;;5011340;28;20210;-77
2022/01/27 11:12:43;;;;;;;25.47;11.97;;;;;;;;;;5011375;28;20189;-79
2022/01/27 11:15:10;;;;;;;31.93;13.67;;;;;;;;;;5011319;28;20268;-78
2022/01/27 11:17:38;;;;;;;30.27;12.87;;;;;;;;;;5027825;28;20227;-78
2022/01/27 11:22:47;;;;;;;31.57;14.57;;;;;;;;;;5011290;28;20189;-78
2022/01/27 11:27:41;;;;;;;31.33;13.73;;;;;;;;;;5016518;28;20197;-79
2022/01/27 11:30:19;;;;;;;26.23;13.53;;;;;;;;;;5015140;28;20225;-78
2022/01/27 11:32:45;;;;;;;30.00;12.37;;;;;;;;;;5031773;28;20185;-78
2022/01/27 11:35:18;;;;;;;26.60;12.67;;;;;;;;;;5031548;28;20182;-78
2022/01/27 11:37:48;;;;;;;26.67;12.63;;;;;;;;;;5031567;28;20205;-78
2022/01/27 11:40:15;;;;;;;28.83;13.40;;;;;;;;;;5031355;28;20202;-78
2022/01/27 11:42:42;;;;;;;27.83;14.50;;;;;;;;;;5031914;28;20664;-77
2022/01/27 11:45:23;;;;;;;22.77;12.10;;;;;;;;;;5032018;28;20181;-76
2022/01/27 11:48:01;;;;;;;28.80;12.63;;;;;;;;;;5031674;28;20546;-77
2022/01/27 11:50:39;;;;;;;27.33;12.03;;;;;;;;;;5015698;28;20219;-77
2022/01/27 11:53:07;;;;;;;23.73;11.90;;;;;;;;;;5031370;28;20198;-77
2022/01/27 11:55:36;;;;;;;25.47;13.60;;;;;;;;;;5015022;28;20628;-76
2022/01/27 11:58:16;;;;;;;29.80;12.67;;;;;;;;;;5031126;28;20246;-77
2022/01/27 12:01:00;;;;;;;27.83;12.80;;;;;;;;;;5014737;28;20236;-77
2022/01/27 12:03:26;;;;;;;24.53;11.67;;;;;;;;;;5031245;28;20181;-76
2022/01/27 12:06:13;;;;;;;26.27;12.10;;;;;;;;;;5014515;28;20186;-76
2022/01/27 12:08:39;;;;;;;27.67;12.03;;;;;;;;;;5031039;28;20193;-77
2022/01/27 12:11:08;;;;;;;28.77;13.20;;;;;;;;;;5014375;28;20198;-75
2022/01/27 12:13:48;;;;;;;25.07;12.40;;;;;;;;;;5015091;28;20186;-78
2022/01/27 12:19:04;;;;;;;19.13;9.97;;;;;;;;;;5015520;28;20268;-78
2022/01/27 12:21:31;;;;;;;23.33;11.47;;;;;;;;;;5030578;28;20186;-78
2022/01/27 12:24:23;;;;;;;25.00;11.83;;;;;;;;;;5013860;28;20649;-78
2022/01/27 12:26:57;;;;;;;22.83;10.23;;;;;;;;;;5030543;28;20204;-78
2022/01/27 12:29:30;;;;;;;24.97;11.43;;;;;;;;;;5030420;28;20213;-78
2022/01/27 12:31:57;;;;;;;22.40;11.47;;;;;;;;;;5030588;28;20173;-78
2022/01/27 12:34:24;;;;;;;27.40;11.33;;;;;;;;;;5030466;28;20182;-78
2022/01/27 12:36:57;;;;;;;26.23;12.20;;;;;;;;;;5029533;28;20212;-78
2022/01/27 12:39:24;;;;;;;25.17;11.73;;;;;;;;;;5030500;28;20564;-78
2022/01/27 12:41:54;;;;;;;23.07;11.17;;;;;;;;;;5013886;28;20182;-78
2022/01/27 12:44:21;;;;;;;26.23;12.07;;;;;;;;;;5013819;28;20217;-78
2022/01/27 12:47:03;;;;;;;22.97;10.83;;;;;;;;;;5013690;28;20182;-78
2022/01/27 12:49:38;;;;;;;25.47;12.03;;;;;;;;;;5030027;28;20217;-78
2022/01/27 12:52:08;;;;;;;23.37;10.90;;;;;;;;;;5030028;28;20189;-78
2022/01/27 12:54:35;;;;;;;24.53;11.63;;;;;;;;;;5014066;28;20567;-78
2022/01/27 12:57:01;;;;;;;24.83;12.13;;;;;;;;;;5030056;28;20210;-78
2022/01/27 12:59:32;;;;;;;23.10;12.03;;;;;;;;;;5030152;28;20606;-78
2022/01/27 13:01:59;;;;;;;24.57;12.00;;;;;;;;;;5013554;28;20188;-78
2022/01/27 13:04:26;;;;;;;24.67;11.73;;;;;;;;;;5029638;28;20178;-78
2022/01/27 13:06:56;;;;;;;25.40;11.77;;;;;;;;;;5029816;28;20644;-78
2022/01/27 13:09:22;;;;;;;24.73;10.70;;;;;;;;;;5029916;28;20280;-78
2022/01/27 13:11:51;;;;;;;23.50;11.63;;;;;;;;;;5013384;28;20190;-78
2022/01/27 13:14:17;;;;;;;22.67;12.13;;;;;;;;;;5014163;28;20321;-78
2022/01/27 13:16:47;;;;;;;23.10;11.77;;;;;;;;;;5029713;28;20218;-78
2022/01/27 13:19:24;;;;;;;22.77;11.57;;;;;;;;;;5014410;28;20656;-78
2022/01/27 13:22:03;;;;;;;28.90;13.80;;;;;;;;;;5029640;28;20179;-78
2022/01/27 13:24:34;;;;;;;23.77;11.33;;;;;;;;;;5029382;28;20520;-78
2022/01/27 13:27:08;;;;;;;21.47;10.90;;;;;;;;;;5014313;28;20684;-78
2022/01/27 13:29:42;;;;;;;22.83;10.43;;;;;;;;;;5039731;22;20268;-78
2022/01/27 13:32:08;;;;;;;21.03;10.43;;;;;;;;;;5032754;28;20177;-78
2022/01/27 13:34:34;;;;;;;21.07;10.60;;;;;;;;;;5015954;28;20274;-78
2022/01/27 13:37:01;;;;;;;21.23;10.90;;;;;;;;;;5016183;28;20216;-78
2022/01/27 13:41:53;;;;;;;22.80;11.77;;;;;;;;;;5033814;28;20622;-78
2022/01/27 13:44:21;;;;;;;21.10;10.67;;;;;;;;;;5032186;28;20567;-78
2022/01/27 13:46:55;;;;;;;21.37;10.73;;;;;;;;;;5032060;28;20173;-78
2022/01/27 13:49:31;;;;;;;19.13;10.97;;;;;;;;;;5032142;28;20181;-78
2022/01/27 13:52:12;;;;;;;23.53;10.83;;;;;;;;;;5032375;28;20205;-78
2022/01/27 13:54:44;;;;;;;20.87;10.33;;;;;;;;;;5032257;28;20188;-77
2022/01/27 13:57:20;;;;;;;20.07;10.73;;;;;;;;;;5032032;28;20206;-78
2022/01/27 14:00:00;;;;;;;19.80;10.93;;;;;;;;;;5015493;28;20285;-78
2022/01/27 14:02:33;;;;;;;22.20;10.90;;;;;;;;;;5032031;28;20197;-78
2022/01/27 14:05:00;;;;;;;21.73;10.73;;;;;;;;;;5031925;28;20239;-78
2022/01/27 14:07:33;;;;;;;21.50;9.93;;;;;;;;;;5032171;28;20189;-77
2022/01/27 14:10:10;;;;;;;17.63;9.77;;;;;;;;;;5015534;28;20750;-77
2022/01/27 14:12:58;;;;;;;18.67;9.80;;;;;;;;;;5031783;28;20192;-77
2022/01/27 14:15:28;;;;;;;20.43;10.27;;;;;;;;;;5033134;28;20256;-76
2022/01/27 14:18:24;;;;;;;19.60;10.83;;;;;;;;;;5031772;28;20209;-77
2022/01/27 14:20:57;;;;;;;19.80;9.80;;;;;;;;;;5020382;28;20214;-77
2022/01/27 14:23:33;;;;;;;20.63;9.77;;;;;;;;;;5032018;28;20279;-76
2022/01/27 14:26:06;;;;;;;20.73;10.77;;;;;;;;;;5032075;28;20180;-77
2022/01/27 14:28:34;;;;;;;17.60;9.10;;;;;;;;;;5031616;28;20189;-77
2022/01/27 14:31:01;;;;;;;18.23;9.67;;;;;;;;;;5031509;28;20209;-77
2022/01/27 14:33:27;;;;;;;18.17;9.60;;;;;;;;;;5031512;28;20177;-78
2022/01/27 14:35:53;;;;;;;18.10;9.00;;;;;;;;;;5015148;28;20185;-77
2022/01/27 14:38:19;;;;;;;17.13;9.23;;;;;;;;;;5033202;28;20588;-78
2022/01/27 14:40:47;;;;;;;22.13;9.50;;;;;;;;;;5014984;28;20205;-78
2022/01/27 14:43:14;;;;;;;15.77;9.37;;;;;;;;;;5031135;28;20541;-77
2022/01/27 14:45:40;;;;;;;16.30;8.77;;;;;;;;;;5031403;28;20599;-78
2022/01/27 14:48:06;;;;;;;15.70;8.63;;;;;;;;;;5015019;28;20259;-78
2022/01/27 14:50:33;;;;;;;14.83;8.07;;;;;;;;;;5031224;28;20289;-78
2022/01/27 14:53:00;;;;;;;15.37;8.23;;;;;;;;;;5031249;28;20178;-78
2022/01/27 14:55:29;;;;;;;14.57;8.33;;;;;;;;;;5031127;28;20640;-78
2022/01/27 14:57:55;;;;;;;14.77;8.53;;;;;;;;;;5014726;28;20711;-78
2022/01/27 15:00:22;;;;;;;14.67;8.53;;;;;;;;;;5030762;28;20679;-78
2022/01/27 15:02:48;;;;;;;16.50;9.00;;;;;;;;;;5031066;28;20177;-78
2022/01/27 15:05:14;;;;;;;16.27;8.30;;;;;;;;;;5031243;28;20213;-78
2022/01/27 15:07:41;;;;;;;15.47;8.13;;;;;;;;;;5014794;28;20201;-78
2022/01/27 15:10:08;;;;;;;15.73;8.67;;;;;;;;;;5030961;28;20201;-78
2022/01/27 15:12:34;;;;;;;17.00;9.67;;;;;;;;;;5014691;28;20193;-79
2022/01/27 15:20:30;;;;;;;14.60;8.17;;;;;;;;;;5031428;28;20220;-78
2022/01/27 15:22:56;;;;;;;18.17;9.70;;;;;;;;;;5032228;28;20180;-79
2022/01/27 15:25:23;;;;;;;17.23;9.27;;;;;;;;;;5014333;28;20186;-78
2022/01/27 15:27:50;;;;;;;18.73;10.57;;;;;;;;;;5031142;28;20674;-78
2022/01/27 15:30:16;;;;;;;19.60;10.50;;;;;;;;;;5014783;28;20220;-78
2022/01/27 15:32:42;;;;;;;18.90;10.23;;;;;;;;;;5014675;28;20663;-80
2022/01/27 15:35:12;;;;;;;22.00;10.47;;;;;;;;;;5014324;28;20184;-78